АеродромСадржај TAF прогнозе
LYBETAF LYBE 200500Z 2006/2106 15004KT CAVOK TX24/2013Z TN14/2104Z TEMPO 2016/2020 5000 TSRA SCT027CB BKN030=
LYBTTAF COR LYBT 200500Z 2006/2106 21008KT 9999 SCT040 TX23/2013Z TN09/2103Z TEMPO 2016/2021 VRB15G30KT 5000 TSRA SCT027CB SCT040 TEMPO 2102/2105 3000 BR=
LYKVTAF LYKV 200500Z 2006/2106 21005KT 0200 FG VV002 TX22/2013Z TN09/2103Z BECMG 2006/2008 9999 NSW SCT030 TEMPO 2015/2019 5000 TSRA SCT027CB SCT040 BECMG 2021/2023 3000 BR TEMPO 2102/2105 0300 FG=
LYNITAF LYNI 200500Z 2006/2106 06005KT 9999 SCT040 TX25/2014Z TN13/2104Z TEMPO 2015/2020 22015G25KT 5000 TSRA SCT030CB BKN033=
LYVRTAF LYVR 200500Z 2006/2106 15007KT 9999 SCT033 TX26/2014Z TN14/2103Z PROB30 TEMPO 2016/2021 18015G25KT 5000 TSRA SCT030CB BKN033=
LYUZTAF LYUZ 200500Z 2006/2106 23009KT 9999 BKN020 TX17/2013Z TN06/2104Z PROB40 TEMPO 2014/2018 5000 SHRA SCT015TCU BKN020=
LYPGTAF LYPG 200500Z 2006/2106 16005KT 9999 FEW010 SCT033 TX21/2013Z TN13/2103Z PROB40 TEMPO 2007/2013 5000 SHRA FEW010 FEW030TCU BKN033 PROB40 TEMPO 2013/2106 VRB15G25KT 4000 TSRA FEW010 FEW027CB BKN033=
LYTVTAF LYTV 200500Z 2006/2106 16006KT 9999 FEW027 SCT040 TX22/2013Z TN12/2103Z PROB40 TEMPO 2012/2022 5000 TSRA FEW027CB BKN040=

Подаци учитани у: 2019-05-20 09:38:16 UTC

METAR, TAF, AIRMET, GAMET, SIGMET

Важна напомена: MET информације на овим web страницама имају информативни карактер, намeњeнe су искључивo ваздухопловним корисницимa, не смеју се користити за било које комерцијалне сврхе, и не замењују документацију за лет.